Time;durP1;ratioP1;P1;durP2;ratioP2;P2;SDS_P1;SDS_P2;PMS_P1;PMS_P2;Temp;Humidity;BMP_temperature;BMP_pressure;BME280_temperature;BME280_humidity;BME280_pressure;Samples;Min_cycle;Max_cycle;Signal;HPM_P1;HPM_P2
2023/12/10 00:00:58;;;;;;;23.48;4.50;;;9.00;99.90;;;;;;4959629;28;20112;-80
2023/12/10 00:03:24;;;;;;;28.95;4.70;;;8.90;99.90;;;;;;4958762;28;20074;-80
2023/12/10 00:05:51;;;;;;;25.85;4.95;;;8.80;99.90;;;;;;4972887;28;20522;-80
2023/12/10 00:08:17;;;;;;;20.35;4.88;;;8.80;99.90;;;;;;4969998;28;20058;-81
2023/12/10 00:10:42;;;;;;;28.50;6.30;;;8.90;99.90;;;;;;4952865;28;20062;-80
2023/12/10 00:13:11;;;;;;;23.02;5.90;;;8.80;99.90;;;;;;4963434;28;20497;-81
2023/12/10 00:15:37;;;;;;;22.98;4.90;;;8.80;99.90;;;;;;4961492;28;20045;-81
2023/12/10 00:18:05;;;;;;;26.23;5.78;;;8.80;99.90;;;;;;4976016;28;20163;-80
2023/12/10 00:20:30;;;;;;;28.33;5.32;;;8.90;99.90;;;;;;4972791;28;20109;-81
2023/12/10 00:22:56;;;;;;;26.10;5.00;;;8.80;99.90;;;;;;4970644;28;20166;-81
2023/12/10 00:25:22;;;;;;;27.88;5.93;;;8.90;99.90;;;;;;4974130;28;20065;-80
2023/12/10 00:27:47;;;;;;;23.60;4.45;;;8.90;99.90;;;;;;4972254;28;20361;-80
2023/12/10 00:30:14;;;;;;;22.48;5.57;;;8.90;99.90;;;;;;4977624;28;20104;-80
2023/12/10 00:32:39;;;;;;;22.58;4.90;;;8.80;99.90;;;;;;4954293;28;20049;-80
2023/12/10 00:35:06;;;;;;;28.30;5.45;;;8.90;99.90;;;;;;4973133;28;20042;-80
2023/12/10 00:37:32;;;;;;;25.52;5.28;;;8.90;99.90;;;;;;4992937;28;20050;-81
2023/12/10 00:39:59;;;;;;;20.92;5.50;;;8.90;99.90;;;;;;4973491;28;20050;-80
2023/12/10 00:42:25;;;;;;;19.13;4.80;;;9.00;99.90;;;;;;4953299;28;20565;-81
2023/12/10 00:44:50;;;;;;;26.10;5.13;;;8.90;99.90;;;;;;4962203;28;20046;-81
2023/12/10 00:47:16;;;;;;;22.17;4.63;;;9.00;99.90;;;;;;4961358;28;20061;-80
2023/12/10 00:49:42;;;;;;;24.08;4.90;;;9.00;99.90;;;;;;4976952;28;20188;-81
2023/12/10 00:52:08;;;;;;;25.48;4.60;;;8.90;99.90;;;;;;4964160;28;20138;-80
2023/12/10 00:54:33;;;;;;;17.25;4.53;;;8.90;99.90;;;;;;4975941;28;20049;-81
2023/12/10 00:57:00;;;;;;;18.67;5.18;;;8.80;99.90;;;;;;4966050;28;20617;-80
2023/12/10 00:59:26;;;;;;;23.73;5.15;;;8.80;99.90;;;;;;4959548;28;20068;-80
2023/12/10 01:01:52;;;;;;;26.10;5.68;;;8.80;99.90;;;;;;4959075;28;20108;-80
2023/12/10 01:04:18;;;;;;;22.38;4.28;;;8.80;99.90;;;;;;4977544;28;20084;-80
2023/12/10 01:06:46;;;;;;;24.85;4.22;;;8.80;99.90;;;;;;4972473;28;20350;-80
2023/12/10 01:09:14;;;;;;;19.58;4.28;;;8.80;99.90;;;;;;4967651;28;20485;-80
2023/12/10 01:11:41;;;;;;;25.80;4.95;;;8.70;99.90;;;;;;4955273;28;20035;-80
2023/12/10 01:14:07;;;;;;;21.17;4.22;;;8.70;99.90;;;;;;4981126;28;20121;-80
2023/12/10 01:16:32;;;;;;;19.30;4.28;;;8.70;99.90;;;;;;4956629;28;20081;-80
2023/12/10 01:18:58;;;;;;;20.75;3.95;;;8.60;99.90;;;;;;4960238;28;20042;-81
2023/12/10 01:21:24;;;;;;;15.25;4.85;;;8.60;99.90;;;;;;4971827;28;20434;-81
2023/12/10 01:23:54;;;;;;;13.70;3.50;;;8.50;99.90;;;;;;4958139;28;20494;-80
2023/12/10 01:26:19;;;;;;;23.20;4.05;;;8.50;99.90;;;;;;4962492;28;20374;-80
2023/12/10 01:28:45;;;;;;;17.85;4.32;;;8.50;99.90;;;;;;4972079;28;20038;-81
2023/12/10 01:31:11;;;;;;;25.52;5.53;;;8.50;99.90;;;;;;4961378;28;20060;-80
2023/12/10 01:33:37;;;;;;;20.75;4.20;;;8.40;99.90;;;;;;4965893;28;20046;-80
2023/12/10 01:36:03;;;;;;;18.52;4.47;;;8.40;99.90;;;;;;4956510;28;20089;-80
2023/12/10 01:38:28;;;;;;;20.10;4.43;;;8.50;99.90;;;;;;4978647;28;20332;-80
2023/12/10 01:40:54;;;;;;;19.67;4.93;;;8.50;99.90;;;;;;4961387;28;20369;-80
2023/12/10 01:43:20;;;;;;;18.63;4.25;;;8.40;99.90;;;;;;4971223;28;20046;-81
2023/12/10 01:45:50;;;;;;;22.92;5.30;;;8.40;99.90;;;;;;4958005;28;20027;-80
2023/12/10 01:48:20;;;;;;;23.02;4.43;;;8.50;99.90;;;;;;4962616;28;20182;-80
2023/12/10 01:50:46;;;;;;;23.00;4.18;;;8.50;99.90;;;;;;4983994;28;20070;-80
2023/12/10 01:53:12;;;;;;;25.27;4.75;;;8.40;99.90;;;;;;4962137;28;20486;-81
2023/12/10 01:55:38;;;;;;;20.85;4.60;;;8.30;99.90;;;;;;4960199;28;20049;-80
2023/12/10 01:58:04;;;;;;;18.25;4.57;;;8.50;99.90;;;;;;4961947;28;20038;-80
2023/12/10 02:00:30;;;;;;;21.52;4.43;;;8.50;99.90;;;;;;4958289;28;20049;-80
2023/12/10 02:02:56;;;;;;;21.85;4.20;;;8.40;99.90;;;;;;4957950;28;20094;-81
2023/12/10 02:05:23;;;;;;;26.73;4.65;;;8.40;99.90;;;;;;4964080;28;20065;-80
2023/12/10 02:07:49;;;;;;;21.13;4.93;;;8.50;99.90;;;;;;4960694;28;20085;-80
2023/12/10 02:10:15;;;;;;;21.52;4.43;;;8.40;99.90;;;;;;4971525;28;20035;-80
2023/12/10 02:12:43;;;;;;;18.95;4.15;;;8.50;99.90;;;;;;4956171;28;20038;-81
2023/12/10 02:15:20;;;;;;;21.40;4.05;;;8.50;99.90;;;;;;4960728;28;20084;-80
2023/12/10 02:17:47;;;;;;;26.05;5.55;;;8.40;99.90;;;;;;4973283;28;20049;-80
2023/12/10 02:20:15;;;;;;;22.60;4.30;;;8.40;99.90;;;;;;4956685;28;20038;-81
2023/12/10 02:23:08;;;;;;;17.27;4.28;;;8.40;99.90;;;;;;4976895;28;20054;-80
2023/12/10 02:25:35;;;;;;;23.90;4.43;;;8.50;99.90;;;;;;5000199;28;20054;-80
2023/12/10 02:28:02;;;;;;;19.10;4.03;;;8.50;99.90;;;;;;4961528;28;20154;-80
2023/12/10 02:30:28;;;;;;;21.77;3.97;;;8.60;99.90;;;;;;4978234;28;20431;-80
2023/12/10 02:32:54;;;;;;;25.20;4.78;;;8.40;99.90;;;;;;4963831;28;20038;-80
2023/12/10 02:35:20;;;;;;;25.50;5.00;;;8.50;99.90;;;;;;4965237;28;20042;-80
2023/12/10 02:37:45;;;;;;;17.42;3.90;;;8.50;99.90;;;;;;4976443;28;20047;-81
2023/12/10 02:40:11;;;;;;;21.13;5.20;;;8.40;99.90;;;;;;4952566;28;20527;-81
2023/12/10 02:42:37;;;;;;;19.52;4.50;;;8.60;99.90;;;;;;4976158;28;20057;-81
2023/12/10 02:45:03;;;;;;;24.00;4.47;;;8.60;99.90;;;;;;4972766;28;20038;-80
2023/12/10 02:47:29;;;;;;;26.02;4.97;;;8.50;99.90;;;;;;4962471;28;20043;-80
2023/12/10 02:49:55;;;;;;;21.95;4.50;;;8.50;99.90;;;;;;4975713;28;20045;-81
2023/12/10 02:52:23;;;;;;;20.60;4.35;;;8.60;99.90;;;;;;4962452;28;20482;-80
2023/12/10 02:54:48;;;;;;;28.55;5.13;;;8.60;99.90;;;;;;4956652;28;20445;-80
2023/12/10 02:57:14;;;;;;;25.05;5.03;;;8.50;99.90;;;;;;4962391;28;20184;-80
2023/12/10 02:59:40;;;;;;;22.83;4.68;;;8.60;99.90;;;;;;4970476;28;20405;-80
2023/12/10 03:02:06;;;;;;;28.23;4.93;;;8.50;99.90;;;;;;4957974;28;20074;-80
2023/12/10 03:04:32;;;;;;;19.05;4.60;;;8.60;99.90;;;;;;4965475;28;20441;-80
2023/12/10 03:06:58;;;;;;;23.90;4.40;;;8.70;99.90;;;;;;4972756;28;20042;-80
2023/12/10 03:09:23;;;;;;;17.70;3.75;;;8.70;99.90;;;;;;4972809;28;20058;-81
2023/12/10 03:11:49;;;;;;;20.27;3.85;;;8.50;99.90;;;;;;4960896;28;20038;-81
2023/12/10 03:14:15;;;;;;;18.73;4.43;;;8.50;99.90;;;;;;4973790;28;20082;-80
2023/12/10 03:16:41;;;;;;;24.15;4.25;;;8.50;99.90;;;;;;4969998;28;20069;-80
2023/12/10 03:19:10;;;;;;;13.60;3.60;;;8.60;99.90;;;;;;4987032;28;20118;-80
2023/12/10 03:21:35;;;;;;;20.08;3.70;;;8.50;99.90;;;;;;4959231;28;20042;-80
2023/12/10 03:24:01;;;;;;;21.13;4.20;;;8.50;99.90;;;;;;4959807;28;20041;-81
2023/12/10 03:26:27;;;;;;;18.05;3.50;;;8.50;99.90;;;;;;4959959;28;20507;-80
2023/12/10 03:28:52;;;;;;;17.67;3.47;;;8.40;99.90;;;;;;4956158;28;20045;-81
2023/12/10 03:31:18;;;;;;;19.92;3.80;;;8.40;99.90;;;;;;4962196;28;20486;-80
2023/12/10 03:33:44;;;;;;;20.98;3.90;;;8.60;99.90;;;;;;4972730;28;20046;-81
2023/12/10 03:36:10;;;;;;;17.85;3.45;;;8.60;99.90;;;;;;4957696;28;20100;-80
2023/12/10 03:38:35;;;;;;;13.48;3.42;;;8.40;99.90;;;;;;4958723;28;20038;-80
2023/12/10 03:41:02;;;;;;;15.25;3.28;;;8.50;99.90;;;;;;4971751;28;20506;-80
2023/12/10 03:43:28;;;;;;;18.27;3.83;;;8.40;99.90;;;;;;4972128;28;20042;-80
2023/12/10 03:45:54;;;;;;;18.05;3.50;;;8.60;99.90;;;;;;4970591;28;20401;-81
2023/12/10 03:48:20;;;;;;;14.60;3.40;;;8.40;99.90;;;;;;4955832;28;20355;-80
2023/12/10 03:50:45;;;;;;;13.07;2.83;;;8.40;99.90;;;;;;4963307;28;20105;-81
2023/12/10 03:53:11;;;;;;;12.05;2.85;;;8.40;99.90;;;;;;4992667;28;20368;-80
2023/12/10 03:55:39;;;;;;;8.23;2.50;;;8.60;99.90;;;;;;4968918;28;20047;-80
2023/12/10 03:58:05;;;;;;;9.27;3.25;;;8.70;99.90;;;;;;4993880;28;20141;-80
2023/12/10 04:00:31;;;;;;;10.95;2.20;;;8.50;99.90;;;;;;4972573;28;20537;-80
2023/12/10 04:02:57;;;;;;;12.02;2.45;;;8.70;99.90;;;;;;4957950;28;20397;-80
2023/12/10 04:05:22;;;;;;;11.43;2.25;;;8.60;99.90;;;;;;4965984;28;20050;-81
2023/12/10 04:07:48;;;;;;;7.80;1.88;;;8.70;99.90;;;;;;4951451;28;20698;-80
2023/12/10 04:10:14;;;;;;;8.80;1.90;;;8.50;99.90;;;;;;4967486;28;20559;-80
2023/12/10 04:12:40;;;;;;;8.48;2.33;;;8.60;99.90;;;;;;4952929;28;20027;-80
2023/12/10 04:15:06;;;;;;;7.53;2.00;;;8.70;99.90;;;;;;4958945;28;20509;-80
2023/12/10 04:17:32;;;;;;;4.85;1.92;;;8.80;99.90;;;;;;4968165;28;20505;-80
2023/12/10 04:19:58;;;;;;;6.72;1.60;;;8.60;99.90;;;;;;4954249;28;20306;-81
2023/12/10 04:22:23;;;;;;;7.63;1.85;;;8.80;99.90;;;;;;4969815;28;20454;-80
2023/12/10 04:24:50;;;;;;;5.63;1.85;;;8.60;99.90;;;;;;4971585;28;20038;-81
2023/12/10 04:27:15;;;;;;;6.00;1.83;;;8.80;99.90;;;;;;4957348;28;20498;-80
2023/12/10 04:29:41;;;;;;;11.15;2.13;;;8.80;99.90;;;;;;4955733;28;20047;-80
2023/12/10 04:32:07;;;;;;;12.02;2.30;;;8.70;99.90;;;;;;4971682;28;20074;-80
2023/12/10 04:34:34;;;;;;;8.70;2.10;;;8.80;99.90;;;;;;4971493;28;20639;-80
2023/12/10 04:37:00;;;;;;;7.57;2.17;;;8.70;99.90;;;;;;4976256;28;20050;-81
2023/12/10 04:39:25;;;;;;;8.43;1.98;;;8.80;99.90;;;;;;4971317;28;20363;-80
2023/12/10 04:41:51;;;;;;;9.25;2.20;;;8.70;99.90;;;;;;4973046;28;20038;-80
2023/12/10 04:44:17;;;;;;;9.90;2.00;;;8.90;99.90;;;;;;4986617;28;20105;-80
2023/12/10 04:46:43;;;;;;;13.73;2.67;;;8.80;99.90;;;;;;4955232;28;20431;-80
2023/12/10 04:49:08;;;;;;;9.80;2.20;;;8.80;99.90;;;;;;4967640;28;20434;-79
2023/12/10 04:51:34;;;;;;;5.95;1.83;;;8.90;99.90;;;;;;4962377;28;20074;-80
2023/12/10 04:54:00;;;;;;;7.95;2.00;;;8.90;99.90;;;;;;4972472;28;20085;-80
2023/12/10 04:56:25;;;;;;;10.48;2.30;;;8.80;99.90;;;;;;4974550;28;20474;-80
2023/12/10 04:58:51;;;;;;;9.40;2.00;;;8.90;99.90;;;;;;4962303;28;20415;-80
2023/12/10 05:01:20;;;;;;;7.57;1.80;;;9.10;99.90;;;;;;4959623;28;20392;-80
2023/12/10 05:03:46;;;;;;;6.07;2.00;;;8.90;99.90;;;;;;4974749;28;20497;-81
2023/12/10 05:06:11;;;;;;;9.02;2.13;;;9.00;99.90;;;;;;4957137;28;20046;-80
2023/12/10 05:08:37;;;;;;;5.60;1.92;;;9.00;99.90;;;;;;4962298;28;20041;-80
2023/12/10 05:11:03;;;;;;;9.75;2.28;;;9.10;99.90;;;;;;4974765;28;20125;-80
2023/12/10 05:13:29;;;;;;;10.10;2.90;;;9.10;99.90;;;;;;4962979;28;20177;-80
2023/12/10 05:15:57;;;;;;;6.30;2.03;;;9.20;99.90;;;;;;4965356;28;20078;-81
2023/12/10 05:18:23;;;;;;;7.88;2.33;;;9.20;99.90;;;;;;4981420;28;20225;-80
2023/12/10 05:20:49;;;;;;;12.93;2.40;;;9.30;99.90;;;;;;4964149;28;20079;-80
2023/12/10 05:23:14;;;;;;;10.05;2.30;;;9.20;99.90;;;;;;4958114;28;20128;-80
2023/12/10 05:25:40;;;;;;;12.25;2.78;;;9.20;99.90;;;;;;4983286;28;20486;-81
2023/12/10 05:28:06;;;;;;;18.70;2.60;;;9.40;99.90;;;;;;4980667;28;20096;-80
2023/12/10 05:30:32;;;;;;;11.90;2.28;;;9.40;99.90;;;;;;4978545;28;20379;-81
2023/12/10 05:32:57;;;;;;;8.60;2.08;;;9.30;99.90;;;;;;4961282;28;20077;-81
2023/12/10 05:35:23;;;;;;;6.00;1.40;;;9.50;99.90;;;;;;4975583;28;20185;-81
2023/12/10 05:37:49;;;;;;;5.90;1.83;;;9.50;99.90;;;;;;4964282;28;20054;-81
2023/12/10 05:40:15;;;;;;;11.90;2.72;;;9.50;99.90;;;;;;4964840;28;20050;-81
2023/12/10 05:42:41;;;;;;;7.35;2.00;;;9.40;99.90;;;;;;4963186;28;20089;-80
2023/12/10 05:45:07;;;;;;;8.20;2.10;;;9.40;99.90;;;;;;4964293;28;20434;-81
2023/12/10 05:47:33;;;;;;;10.60;2.35;;;9.40;99.90;;;;;;4976676;28;20034;-80
2023/12/10 05:49:59;;;;;;;10.07;2.75;;;9.40;99.90;;;;;;4960887;28;20030;-81
2023/12/10 05:52:24;;;;;;;5.63;1.90;;;9.50;99.90;;;;;;4963389;28;20466;-80
2023/12/10 05:54:51;;;;;;;8.45;2.55;;;9.50;99.90;;;;;;4961061;28;20039;-81
2023/12/10 05:57:17;;;;;;;6.97;2.33;;;9.50;99.90;;;;;;4991780;28;20049;-80
2023/12/10 05:59:43;;;;;;;7.63;2.00;;;9.30;99.90;;;;;;4980206;28;20422;-80
2023/12/10 06:02:12;;;;;;;4.80;1.98;;;9.30;99.90;;;;;;4956824;28;20085;-80
2023/12/10 06:04:37;;;;;;;6.75;1.65;;;9.30;99.90;;;;;;4973393;28;20450;-80
2023/12/10 06:07:06;;;;;;;5.05;2.20;;;9.40;99.90;;;;;;4964620;28;20050;-80
2023/12/10 06:09:31;;;;;;;5.35;1.70;;;9.40;99.90;;;;;;4975943;28;20509;-81
2023/12/10 06:11:57;;;;;;;6.80;1.75;;;9.20;99.90;;;;;;4971723;28;20101;-81
2023/12/10 06:14:23;;;;;;;4.10;1.23;;;9.20;99.90;;;;;;4957548;28;20545;-80
2023/12/10 06:16:49;;;;;;;4.45;1.50;;;9.20;99.90;;;;;;4965871;28;20050;-80
2023/12/10 06:19:14;;;;;;;4.75;1.35;;;9.30;99.90;;;;;;4972586;28;20084;-81
2023/12/10 06:21:40;;;;;;;7.70;1.42;;;9.30;99.90;;;;;;4971367;28;20203;-81
2023/12/10 06:24:07;;;;;;;5.03;1.58;;;9.30;99.90;;;;;;4965945;28;20034;-81
2023/12/10 06:26:32;;;;;;;7.82;1.95;;;9.30;99.90;;;;;;4971552;28;20125;-80
2023/12/10 06:28:58;;;;;;;7.10;1.40;;;9.30;99.90;;;;;;4959608;28;20387;-80
2023/12/10 06:31:24;;;;;;;6.25;1.65;;;9.40;99.90;;;;;;4970374;28;20038;-80
2023/12/10 06:33:50;;;;;;;7.57;1.85;;;9.50;99.90;;;;;;4974755;28;20110;-80
2023/12/10 06:36:15;;;;;;;4.47;1.45;;;9.50;99.90;;;;;;4971555;28;20046;-80
2023/12/10 06:38:41;;;;;;;3.40;1.20;;;9.50;99.90;;;;;;4967310;28;20334;-80
2023/12/10 06:41:07;;;;;;;4.60;1.70;;;9.30;99.90;;;;;;4957244;28;20048;-80
2023/12/10 06:43:32;;;;;;;6.22;2.10;;;9.40;99.90;;;;;;4962489;28;20045;-81
2023/12/10 06:45:58;;;;;;;7.25;1.75;;;9.50;99.90;;;;;;4969305;28;20325;-81
2023/12/10 06:48:25;;;;;;;7.28;1.40;;;9.40;99.90;;;;;;4958980;28;20496;-80
2023/12/10 06:50:51;;;;;;;7.30;1.80;;;9.40;99.90;;;;;;4956812;28;20476;-80
2023/12/10 06:53:17;;;;;;;6.28;1.73;;;9.30;99.90;;;;;;4963328;28;20449;-80
2023/12/10 06:55:44;;;;;;;5.40;1.05;;;9.50;99.90;;;;;;4972339;28;20054;-80
2023/12/10 06:58:12;;;;;;;7.60;1.50;;;9.40;99.90;;;;;;4961988;28;20046;-80
2023/12/10 07:00:38;;;;;;;7.38;1.48;;;9.50;99.90;;;;;;4974551;28;20049;-80
2023/12/10 07:03:03;;;;;;;5.95;1.13;;;9.50;99.90;;;;;;4956586;28;20038;-80
2023/12/10 07:05:29;;;;;;;5.35;1.27;;;9.30;99.90;;;;;;5000483;28;20054;-80
2023/12/10 07:07:55;;;;;;;4.03;1.10;;;9.30;99.90;;;;;;4964772;28;20125;-80
2023/12/10 07:10:21;;;;;;;2.40;0.80;;;9.40;99.90;;;;;;4962712;28;20041;-80
2023/12/10 07:12:51;;;;;;;2.85;0.80;;;9.30;99.90;;;;;;4967005;28;20461;-80
2023/12/10 07:15:17;;;;;;;4.63;0.80;;;9.40;99.90;;;;;;4956725;28;20412;-80
2023/12/10 07:17:43;;;;;;;4.65;1.10;;;9.30;99.90;;;;;;4960651;28;20052;-80
2023/12/10 07:20:09;;;;;;;6.28;1.10;;;9.30;99.90;;;;;;4972761;28;20433;-80
2023/12/10 07:22:35;;;;;;;2.22;0.90;;;9.30;99.90;;;;;;4986342;28;20042;-81
2023/12/10 07:25:04;;;;;;;2.08;0.80;;;9.40;99.90;;;;;;4957690;28;20490;-80
2023/12/10 07:27:31;;;;;;;4.07;0.80;;;9.30;99.90;;;;;;4962613;28;20490;-81
2023/12/10 07:29:57;;;;;;;3.08;0.85;;;9.10;99.90;;;;;;4968544;28;20083;-80
2023/12/10 07:32:23;;;;;;;3.40;0.90;;;9.30;99.90;;;;;;4962313;28;20039;-81
2023/12/10 07:34:49;;;;;;;4.75;1.20;;;9.20;99.90;;;;;;4956946;28;20041;-80
2023/12/10 07:37:15;;;;;;;1.77;0.63;;;9.40;99.90;;;;;;4975523;28;20474;-81
2023/12/10 07:39:40;;;;;;;2.33;0.98;;;9.30;99.90;;;;;;4975386;28;20101;-80
2023/12/10 07:42:06;;;;;;;4.60;1.10;;;9.40;99.90;;;;;;4967139;28;20089;-81
2023/12/10 07:44:33;;;;;;;4.60;1.00;;;9.50;99.90;;;;;;4965486;28;20221;-81
2023/12/10 07:46:59;;;;;;;5.85;2.80;;;9.50;99.90;;;;;;4987062;28;20054;-80
2023/12/10 07:49:25;;;;;;;5.28;1.50;;;9.50;99.90;;;;;;4967156;28;20088;-80
2023/12/10 07:51:51;;;;;;;7.25;1.95;;;9.40;99.90;;;;;;4953304;28;20049;-80
2023/12/10 07:54:16;;;;;;;10.55;2.58;;;9.50;99.90;;;;;;4986417;28;20042;-80
2023/12/10 07:56:42;;;;;;;9.32;1.88;;;9.30;99.90;;;;;;4952107;28;20495;-80
2023/12/10 07:59:08;;;;;;;7.70;1.90;;;9.30;99.90;;;;;;4969620;28;20140;-80
2023/12/10 08:01:34;;;;;;;8.88;2.00;;;9.50;99.90;;;;;;4980761;28;20038;-80
2023/12/10 08:04:00;;;;;;;15.10;2.22;;;9.30;99.90;;;;;;4985883;28;20059;-81
2023/12/10 08:06:25;;;;;;;10.73;1.70;;;9.40;99.90;;;;;;4951695;28;20392;-80
2023/12/10 08:08:51;;;;;;;6.18;1.63;;;9.30;99.90;;;;;;4962250;28;20070;-80
2023/12/10 08:11:17;;;;;;;7.45;1.50;;;9.30;99.90;;;;;;4951932;28;20046;-80
2023/12/10 08:13:43;;;;;;;8.52;1.60;;;9.30;99.90;;;;;;4953909;28;20081;-80
2023/12/10 08:16:09;;;;;;;6.65;1.58;;;9.50;99.90;;;;;;4956656;28;20053;-80
2023/12/10 08:18:34;;;;;;;9.13;2.45;;;9.40;99.90;;;;;;4956659;28;20053;-81
2023/12/10 08:21:01;;;;;;;10.52;2.47;;;9.30;99.90;;;;;;4959362;28;20038;-80
2023/12/10 08:23:27;;;;;;;14.85;2.58;;;9.30;99.90;;;;;;4962604;28;20047;-81
2023/12/10 08:25:53;;;;;;;16.48;3.17;;;9.30;99.90;;;;;;4956868;28;20073;-80
2023/12/10 08:28:18;;;;;;;21.67;3.03;;;9.40;99.90;;;;;;4973008;28;20729;-80
2023/12/10 08:30:44;;;;;;;19.30;3.58;;;9.50;99.90;;;;;;4959592;28;20034;-81
2023/12/10 08:33:10;;;;;;;11.63;3.40;;;9.40;99.90;;;;;;4966351;28;20074;-81
2023/12/10 08:35:35;;;;;;;12.85;2.88;;;9.20;99.90;;;;;;4953484;28;20097;-81
2023/12/10 08:38:01;;;;;;;14.93;3.15;;;9.20;99.90;;;;;;4961894;28;20633;-80
2023/12/10 08:40:27;;;;;;;16.55;3.17;;;9.40;99.90;;;;;;4961387;28;20401;-81
2023/12/10 08:42:53;;;;;;;22.75;3.65;;;9.30;99.90;;;;;;4964211;28;20078;-81
2023/12/10 08:45:18;;;;;;;16.63;3.10;;;9.20;99.90;;;;;;4962670;28;20133;-80
2023/12/10 08:47:44;;;;;;;13.80;3.42;;;9.40;99.90;;;;;;4958806;28;20042;-81
2023/12/10 08:50:10;;;;;;;17.67;3.65;;;9.40;99.90;;;;;;4965000;28;20042;-80
2023/12/10 08:52:36;;;;;;;29.02;4.20;;;9.40;99.90;;;;;;4964109;28;20044;-80
2023/12/10 08:55:02;;;;;;;29.52;4.93;;;9.20;99.90;;;;;;4963649;28;20092;-80
2023/12/10 08:57:28;;;;;;;21.70;4.07;;;9.20;99.90;;;;;;4961569;28;20046;-80
2023/12/10 09:00:00;;;;;;;20.80;3.72;;;9.30;99.90;;;;;;4958737;28;20039;-81
2023/12/10 09:02:25;;;;;;;24.30;3.67;;;9.50;99.90;;;;;;4976533;28;20232;-81
2023/12/10 09:04:51;;;;;;;20.80;4.22;;;9.40;99.90;;;;;;4959406;28;20055;-80
2023/12/10 09:07:17;;;;;;;22.80;4.47;;;9.40;99.90;;;;;;4957232;28;20398;-81
2023/12/10 09:09:43;;;;;;;21.70;3.60;;;9.50;99.90;;;;;;4978123;28;20302;-80
2023/12/10 09:12:09;;;;;;;27.65;4.25;;;9.50;99.90;;;;;;4973165;28;20449;-81
2023/12/10 09:14:36;;;;;;;20.10;3.90;;;9.30;99.90;;;;;;4963150;28;20050;-80
2023/12/10 09:17:02;;;;;;;18.48;3.85;;;9.50;99.90;;;;;;4972240;28;20101;-80
2023/12/10 09:19:29;;;;;;;21.33;4.00;;;9.50;99.90;;;;;;4958555;28;20050;-81
2023/12/10 09:21:55;;;;;;;15.20;3.63;;;9.40;99.90;;;;;;4974708;28;20145;-81
2023/12/10 09:24:22;;;;;;;18.15;3.40;;;9.30;99.90;;;;;;4964841;28;20150;-81
2023/12/10 09:26:48;;;;;;;11.93;2.95;;;9.40;99.90;;;;;;4973720;28;20195;-80
2023/12/10 09:29:14;;;;;;;11.13;2.80;;;9.30;99.90;;;;;;4961299;28;20512;-81
2023/12/10 09:31:40;;;;;;;14.55;3.13;;;9.40;99.90;;;;;;4956610;28;20039;-80
2023/12/10 09:34:06;;;;;;;17.15;2.72;;;9.40;99.90;;;;;;4976614;28;20516;-80
2023/12/10 09:36:31;;;;;;;14.77;3.03;;;9.40;99.90;;;;;;4970192;28;20473;-80
2023/12/10 09:38:57;;;;;;;18.02;3.47;;;9.40;99.90;;;;;;4962518;28;20299;-80
2023/12/10 09:41:23;;;;;;;21.00;3.55;;;9.40;99.90;;;;;;4959579;28;20212;-80
2023/12/10 09:43:48;;;;;;;14.85;3.38;;;9.50;99.90;;;;;;4998516;28;20585;-80
2023/12/10 09:46:14;;;;;;;18.67;3.28;;;9.50;99.90;;;;;;4972720;28;20432;-80
2023/12/10 09:48:41;;;;;;;18.55;3.08;;;9.50;99.90;;;;;;4984777;28;20030;-80
2023/12/10 09:51:07;;;;;;;14.45;3.03;;;9.40;99.90;;;;;;4973882;28;20475;-80
2023/12/10 09:53:33;;;;;;;17.35;3.05;;;9.40;99.90;;;;;;4965420;28;20261;-80
2023/12/10 09:55:59;;;;;;;18.30;3.60;;;9.30;99.90;;;;;;4986624;28;20050;-81
2023/12/10 09:58:25;;;;;;;16.88;3.55;;;9.30;99.90;;;;;;4963288;28;20039;-80
2023/12/10 10:00:51;;;;;;;23.33;3.95;;;9.40;99.90;;;;;;5006480;28;20138;-80
2023/12/10 10:03:18;;;;;;;14.85;3.03;;;9.40;99.90;;;;;;4964844;28;20046;-80
2023/12/10 10:05:43;;;;;;;17.30;3.78;;;9.20;99.90;;;;;;4972232;28;20089;-80
2023/12/10 10:08:09;;;;;;;17.90;3.58;;;9.20;99.90;;;;;;4956621;28;20039;-80
2023/12/10 10:10:35;;;;;;;15.00;2.97;;;9.20;99.90;;;;;;4959748;28;20126;-80
2023/12/10 10:13:01;;;;;;;16.50;2.83;;;9.20;99.90;;;;;;4964007;28;20530;-81
2023/12/10 10:15:28;;;;;;;16.17;3.15;;;9.30;99.90;;;;;;4963375;28;20046;-80
2023/12/10 10:17:54;;;;;;;17.85;3.58;;;9.20;99.90;;;;;;4961438;28;20042;-80
2023/12/10 10:20:24;;;;;;;18.48;4.53;;;9.30;99.90;;;;;;4975988;28;20374;-80
2023/12/10 10:22:51;;;;;;;20.85;3.97;;;9.50;99.90;;;;;;4961174;28;20225;-81
2023/12/10 10:25:21;;;;;;;21.45;3.75;;;9.50;99.90;;;;;;4958974;28;20506;-80
2023/12/10 10:27:49;;;;;;;17.10;4.22;;;9.40;99.90;;;;;;4954558;28;20046;-81
2023/12/10 10:30:15;;;;;;;26.25;4.57;;;9.40;99.90;;;;;;4978701;28;20050;-80
2023/12/10 10:32:42;;;;;;;21.75;4.65;;;9.30;99.90;;;;;;4975214;28;20049;-81
2023/12/10 10:35:08;;;;;;;33.67;5.13;;;9.50;99.90;;;;;;4975726;28;20359;-81
2023/12/10 10:37:34;;;;;;;25.73;5.30;;;9.50;99.90;;;;;;4960522;28;20058;-81
2023/12/10 10:40:00;;;;;;;20.98;4.13;;;9.30;99.90;;;;;;4957078;28;20460;-80
2023/12/10 10:42:26;;;;;;;30.60;5.53;;;9.40;99.90;;;;;;4959601;28;20054;-81
2023/12/10 10:44:52;;;;;;;28.70;5.18;;;9.30;99.90;;;;;;4961998;28;20061;-81
2023/12/10 10:47:18;;;;;;;34.95;6.28;;;9.30;99.90;;;;;;4976649;28;20117;-80
2023/12/10 10:50:06;;;;;;;29.58;5.70;;;9.50;99.90;;;;;;4971738;28;20043;-80
2023/12/10 10:52:34;;;;;;;26.00;5.13;;;9.50;99.90;;;;;;4962437;28;20039;-81
2023/12/10 10:55:00;;;;;;;27.10;5.68;;;9.50;99.90;;;;;;4964102;28;20034;-80
2023/12/10 10:57:35;;;;;;;29.67;5.72;;;9.40;99.90;;;;;;4976679;28;20045;-80
2023/12/10 11:00:22;;;;;;;34.65;4.88;;;9.50;99.90;;;;;;4972551;28;20420;-80
2023/12/10 11:03:01;;;;;;;21.05;4.97;;;9.50;99.90;;;;;;4975799;28;20049;-80
2023/12/10 11:05:30;;;;;;;37.67;4.60;;;9.50;99.90;;;;;;4965311;28;20502;-80
2023/12/10 11:07:56;;;;;;;24.27;3.88;;;9.40;99.90;;;;;;4976226;28;20121;-80
2023/12/10 11:10:21;;;;;;;21.90;4.85;;;9.50;99.90;;;;;;4973918;28;20035;-81
2023/12/10 11:12:49;;;;;;;22.52;4.35;;;9.40;99.90;;;;;;4965516;28;20103;-80
2023/12/10 11:15:18;;;;;;;27.95;5.05;;;9.50;99.90;;;;;;4972017;28;20067;-81
2023/12/10 11:17:59;;;;;;;26.92;4.72;;;9.50;99.90;;;;;;4973554;28;20035;-81
2023/12/10 11:20:58;;;;;;;23.92;4.88;;;9.50;99.90;;;;;;4988017;28;20034;-80
2023/12/10 11:23:24;;;;;;;18.77;4.63;;;9.50;99.90;;;;;;4947184;28;20047;-80
2023/12/10 11:25:51;;;;;;;24.38;4.28;;;9.40;99.90;;;;;;4958545;28;20391;-80
2023/12/10 11:28:18;;;;;;;18.67;3.78;;;9.50;99.90;;;;;;4974155;28;20045;-81
2023/12/10 11:30:45;;;;;;;20.05;4.65;;;9.50;99.90;;;;;;4955366;28;20081;-80
2023/12/10 11:33:14;;;;;;;22.30;4.82;;;9.40;99.90;;;;;;4981527;28;20498;-80
2023/12/10 11:35:41;;;;;;;23.25;4.38;;;9.40;99.90;;;;;;4968167;28;20042;-80
2023/12/10 11:38:07;;;;;;;21.15;4.28;;;9.40;99.90;;;;;;4963075;28;20134;-81
2023/12/10 11:40:36;;;;;;;27.55;4.97;;;9.50;99.90;;;;;;4971966;28;20047;-80
2023/12/10 11:43:06;;;;;;;24.15;4.57;;;9.50;99.90;;;;;;4972710;28;20050;-80
2023/12/10 11:45:32;;;;;;;29.15;5.47;;;9.50;99.90;;;;;;4957221;28;20043;-80
2023/12/10 11:48:00;;;;;;;23.25;4.32;;;9.40;99.90;;;;;;4970989;28;20190;-80
2023/12/10 11:50:25;;;;;;;25.13;4.47;;;9.50;99.90;;;;;;4958191;28;20530;-81
2023/12/10 11:52:51;;;;;;;26.27;4.82;;;9.50;99.90;;;;;;4964179;28;20038;-80
2023/12/10 11:55:17;;;;;;;25.52;5.03;;;9.60;99.90;;;;;;4974874;28;20157;-80
2023/12/10 11:57:43;;;;;;;27.35;4.72;;;9.60;99.90;;;;;;4958598;28;20045;-81
2023/12/10 12:00:13;;;;;;;30.13;5.07;;;9.50;99.90;;;;;;4971265;28;20038;-80
2023/12/10 12:02:44;;;;;;;20.88;4.25;;;9.60;99.90;;;;;;4960012;28;20145;-80
2023/12/10 12:05:11;;;;;;;30.52;4.65;;;9.60;99.90;;;;;;4967113;28;20054;-80
2023/12/10 12:07:40;;;;;;;28.60;5.30;;;9.50;99.90;;;;;;4974434;28;20346;-81
2023/12/10 12:10:07;;;;;;;32.25;6.32;;;9.50;99.90;;;;;;4959546;28;20145;-80
2023/12/10 12:12:46;;;;;;;22.95;4.28;;;9.50;99.90;;;;;;4955419;28;20043;-80
2023/12/10 12:15:14;;;;;;;19.75;4.03;;;9.50;99.90;;;;;;4956714;28;20462;-80
2023/12/10 12:17:41;;;;;;;23.73;4.50;;;9.50;99.90;;;;;;4961346;28;20523;-80
2023/12/10 12:20:13;;;;;;;27.40;4.78;;;9.60;99.90;;;;;;4964488;28;20169;-80
2023/12/10 12:22:39;;;;;;;26.35;4.90;;;9.50;99.90;;;;;;4975522;28;20043;-81
2023/12/10 12:25:06;;;;;;;19.70;4.30;;;9.50;99.90;;;;;;4975940;28;20034;-81
2023/12/10 12:27:32;;;;;;;32.08;4.88;;;9.50;99.90;;;;;;4961950;28;20479;-81
2023/12/10 12:29:57;;;;;;;22.40;4.20;;;9.50;99.90;;;;;;4974030;28;20101;-80
2023/12/10 12:32:23;;;;;;;32.65;4.80;;;9.40;99.90;;;;;;4975589;28;20054;-81
2023/12/10 12:34:49;;;;;;;29.42;4.22;;;9.50;99.90;;;;;;4974701;28;20358;-80
2023/12/10 12:37:15;;;;;;;28.85;4.88;;;9.50;99.90;;;;;;4965176;28;20039;-80
2023/12/10 12:39:40;;;;;;;20.05;4.38;;;9.40;99.90;;;;;;4963839;28;20042;-80
2023/12/10 12:42:07;;;;;;;16.75;4.00;;;9.40;99.90;;;;;;4979074;28;20076;-80
2023/12/10 12:44:35;;;;;;;24.23;4.35;;;9.50;99.90;;;;;;4974897;28;20433;-80
2023/12/10 12:47:01;;;;;;;21.65;4.32;;;9.40;99.90;;;;;;4993214;28;20149;-80